QTR25R OTHH-OMDB
Flight info
| Callsign | QTR25R |
|---|---|
| Flight time | 0h 54m |
| Altitude | 21000 |
| Route | ALSEM3E/34R ALSEM L305 ITBUL M677 VUTEB |
| Aircraft | A333/H-SDE3GHIJ2J3J5M1RVWXY/LB2D1 |
Departure
| Time | 2026-05-03 23:47 |
|---|---|
| Airport | Hamad International Airport (OTHH) |
Arrival
| Time | 2026-05-04 00:42 |
|---|---|
| Airport | Dubai International Airport (OMDB) |
| Time | Latitude | Longitude | Altitude | Speed | Heading |
|---|---|---|---|---|---|
| 2026-05-03 22:49 | 25.26344 | 51.61370 | 31 ft | 0 kts | 246° |
| 2026-05-03 23:28 | 25.26345 | 51.61374 | 30 ft | 2 kts | 249° |
| 2026-05-03 23:29 | 25.26350 | 51.61389 | 30 ft | 2 kts | 249° |
| 2026-05-03 23:29 | 25.26356 | 51.61406 | 30 ft | 2 kts | 249° |
| 2026-05-03 23:29 | 25.26361 | 51.61422 | 30 ft | 2 kts | 249° |
| 2026-05-03 23:29 | 25.26368 | 51.61436 | 30 ft | 2 kts | 233° |
| 2026-05-03 23:30 | 25.26378 | 51.61449 | 30 ft | 2 kts | 224° |
| 2026-05-03 23:30 | 25.26390 | 51.61459 | 30 ft | 2 kts | 215° |
| 2026-05-03 23:30 | 25.26396 | 51.61464 | 30 ft | 0 kts | 258° |
| 2026-05-03 23:30 | 25.26396 | 51.61470 | 30 ft | 1 kts | 316° |
| 2026-05-03 23:31 | 25.26387 | 51.61482 | 30 ft | 1 kts | 299° |
| 2026-05-03 23:37 | 25.26396 | 51.61467 | 30 ft | 4 kts | 313° |
| 2026-05-03 23:37 | 25.26432 | 51.61442 | 30 ft | 8 kts | 334° |
| 2026-05-03 23:38 | 25.26481 | 51.61418 | 30 ft | 8 kts | 336° |
| 2026-05-03 23:38 | 25.26543 | 51.61391 | 30 ft | 11 kts | 339° |
| 2026-05-03 23:38 | 25.26620 | 51.61358 | 30 ft | 13 kts | 339° |
| 2026-05-03 23:38 | 25.26703 | 51.61331 | 30 ft | 13 kts | 3° |
| 2026-05-03 23:39 | 25.26789 | 51.61361 | 30 ft | 14 kts | 22° |
| 2026-05-03 23:39 | 25.26879 | 51.61403 | 30 ft | 14 kts | 22° |
| 2026-05-03 23:39 | 25.26971 | 51.61450 | 30 ft | 12 kts | 34° |
| 2026-05-03 23:39 | 25.27017 | 51.61522 | 30 ft | 12 kts | 64° |
| 2026-05-03 23:40 | 25.27052 | 51.61617 | 30 ft | 14 kts | 69° |
| 2026-05-03 23:40 | 25.27030 | 51.61713 | 30 ft | 15 kts | 154° |
| 2026-05-03 23:40 | 25.26928 | 51.61762 | 30 ft | 16 kts | 158° |
| 2026-05-03 23:40 | 25.26820 | 51.61809 | 30 ft | 17 kts | 159° |
| 2026-05-03 23:41 | 25.26706 | 51.61860 | 30 ft | 18 kts | 157° |
| 2026-05-03 23:41 | 25.26588 | 51.61911 | 30 ft | 18 kts | 159° |
| 2026-05-03 23:41 | 25.26468 | 51.61963 | 30 ft | 19 kts | 158° |
| 2026-05-03 23:41 | 25.26345 | 51.62018 | 30 ft | 19 kts | 158° |
| 2026-05-03 23:42 | 25.26221 | 51.62072 | 30 ft | 19 kts | 160° |
| 2026-05-03 23:42 | 25.26102 | 51.62122 | 30 ft | 16 kts | 158° |
| 2026-05-03 23:42 | 25.26013 | 51.62164 | 30 ft | 12 kts | 157° |
| 2026-05-03 23:42 | 25.25970 | 51.62224 | 30 ft | 11 kts | 92° |
| 2026-05-03 23:43 | 25.25981 | 51.62283 | 30 ft | 12 kts | 69° |
| 2026-05-03 23:43 | 25.26000 | 51.62335 | 30 ft | 0 kts | 68° |
| 2026-05-03 23:45 | 25.26004 | 51.62345 | 30 ft | 4 kts | 68° |
| 2026-05-03 23:45 | 25.26019 | 51.62386 | 30 ft | 7 kts | 67° |
| 2026-05-03 23:46 | 25.26060 | 51.62431 | 30 ft | 10 kts | 7° |
| 2026-05-03 23:46 | 25.26139 | 51.62417 | 30 ft | 14 kts | 342° |
| 2026-05-03 23:46 | 25.26308 | 51.62344 | 30 ft | 46 kts | 337° |
| 2026-05-03 23:46 | 25.26760 | 51.62142 | 30 ft | 94 kts | 338° |
| 2026-05-03 23:47 | 25.27512 | 51.61804 | 30 ft | 140 kts | 338° |
| 2026-05-03 23:47 | 25.28501 | 51.61364 | 316 ft | 155 kts | 337° |
| 2026-05-03 23:47 | 25.29147 | 51.61080 | 689 ft | 155 kts | 337° |
| 2026-05-03 23:48 | 25.30006 | 51.60704 | 1107 ft | 160 kts | 337° |
| 2026-05-03 23:48 | 25.31080 | 51.60234 | 1497 ft | 169 kts | 336° |
| 2026-05-03 23:48 | 25.32217 | 51.59735 | 1820 ft | 186 kts | 336° |
| 2026-05-03 23:48 | 25.33485 | 51.59175 | 1923 ft | 212 kts | 336° |
| 2026-05-03 23:49 | 25.34976 | 51.58516 | 2018 ft | 242 kts | 336° |
| 2026-05-03 23:49 | 25.36634 | 51.57785 | 2234 ft | 265 kts | 336° |
| 2026-05-03 23:49 | 25.38322 | 51.57046 | 2983 ft | 266 kts | 335° |
| 2026-05-03 23:49 | 25.40077 | 51.56275 | 3646 ft | 273 kts | 335° |
| 2026-05-03 23:50 | 25.41486 | 51.55653 | 3907 ft | 283 kts | 335° |
| 2026-05-03 23:50 | 25.42071 | 51.55394 | 3937 ft | 288 kts | 335° |
| 2026-05-03 23:51 | 25.43941 | 51.54570 | 3965 ft | 290 kts | 335° |
| 2026-05-03 23:51 | 25.44119 | 51.54491 | 3966 ft | 289 kts | 335° |
| 2026-05-03 23:51 | 25.44967 | 51.54124 | 3962 ft | 287 kts | 338° |
| 2026-05-03 23:51 | 25.46923 | 51.53826 | 3980 ft | 285 kts | 2° |
| 2026-05-03 23:52 | 25.48824 | 51.54466 | 3985 ft | 288 kts | 27° |
| 2026-05-03 23:52 | 25.50317 | 51.55922 | 4006 ft | 288 kts | 51° |
| 2026-05-03 23:52 | 25.51543 | 51.57683 | 4008 ft | 289 kts | 51° |
| 2026-05-03 23:52 | 25.52787 | 51.59387 | 4006 ft | 288 kts | 50° |
| 2026-05-03 23:53 | 25.54071 | 51.61094 | 3999 ft | 287 kts | 49° |
| 2026-05-03 23:53 | 25.55366 | 51.62784 | 3999 ft | 286 kts | 49° |
| 2026-05-03 23:53 | 25.56661 | 51.64455 | 4000 ft | 286 kts | 49° |
| 2026-05-03 23:53 | 25.57693 | 51.66320 | 4008 ft | 285 kts | 71° |
| 2026-05-03 23:54 | 25.57935 | 51.68497 | 4417 ft | 286 kts | 92° |
| 2026-05-03 23:54 | 25.57875 | 51.70721 | 5112 ft | 291 kts | 92° |
| 2026-05-03 23:54 | 25.57802 | 51.72960 | 5846 ft | 292 kts | 93° |
| 2026-05-03 23:54 | 25.57718 | 51.75230 | 6546 ft | 296 kts | 93° |
| 2026-05-03 23:55 | 25.57626 | 51.77562 | 6910 ft | 310 kts | 93° |
| 2026-05-03 23:55 | 25.57526 | 51.79991 | 7003 ft | 317 kts | 93° |
| 2026-05-03 23:55 | 25.57424 | 51.82412 | 7027 ft | 313 kts | 93° |
| 2026-05-03 23:55 | 25.57313 | 51.84767 | 7034 ft | 307 kts | 93° |
| 2026-05-03 23:56 | 25.57212 | 51.87139 | 7038 ft | 304 kts | 93° |
| 2026-05-03 23:56 | 25.57113 | 51.89440 | 7041 ft | 302 kts | 93° |
| 2026-05-03 23:56 | 25.57009 | 51.91760 | 7044 ft | 301 kts | 94° |
| 2026-05-03 23:56 | 25.56761 | 51.94068 | 7239 ft | 304 kts | 101° |
| 2026-05-03 23:57 | 25.56434 | 51.96367 | 8090 ft | 301 kts | 99° |
| 2026-05-03 23:57 | 25.56109 | 51.98668 | 8774 ft | 304 kts | 99° |
| 2026-05-03 23:57 | 25.55775 | 52.00991 | 9500 ft | 307 kts | 99° |
| 2026-05-03 23:57 | 25.55434 | 52.03343 | 10214 ft | 310 kts | 99° |
| 2026-05-03 23:58 | 25.55078 | 52.05774 | 10476 ft | 332 kts | 99° |
| 2026-05-03 23:58 | 25.54690 | 52.08415 | 10564 ft | 358 kts | 99° |
| 2026-05-03 23:58 | 25.54281 | 52.11190 | 10649 ft | 383 kts | 99° |
| 2026-05-03 23:58 | 25.53844 | 52.14153 | 11161 ft | 392 kts | 99° |
| 2026-05-03 23:59 | 25.53401 | 52.17146 | 11881 ft | 396 kts | 99° |
| 2026-05-03 23:59 | 25.52952 | 52.20172 | 12593 ft | 400 kts | 99° |
| 2026-05-03 23:59 | 25.52500 | 52.23220 | 13286 ft | 404 kts | 99° |
| 2026-05-03 23:59 | 25.52040 | 52.26317 | 13971 ft | 408 kts | 99° |
| 2026-05-04 00:00 | 25.51578 | 52.29432 | 14638 ft | 412 kts | 99° |
| 2026-05-04 00:00 | 25.51111 | 52.32566 | 15292 ft | 415 kts | 99° |
| 2026-05-04 00:00 | 25.50644 | 52.35706 | 15931 ft | 419 kts | 99° |
| 2026-05-04 00:00 | 25.50168 | 52.38899 | 16559 ft | 422 kts | 98° |
| 2026-05-04 00:01 | 25.49679 | 52.42177 | 17156 ft | 427 kts | 98° |
| 2026-05-04 00:01 | 25.49198 | 52.45401 | 17713 ft | 431 kts | 99° |
| 2026-05-04 00:01 | 25.48709 | 52.48674 | 18302 ft | 435 kts | 98° |
| 2026-05-04 00:01 | 25.48210 | 52.52001 | 18804 ft | 441 kts | 98° |
| 2026-05-04 00:02 | 25.47704 | 52.55374 | 19395 ft | 444 kts | 98° |
| 2026-05-04 00:02 | 25.47195 | 52.58760 | 19937 ft | 448 kts | 98° |
| 2026-05-04 00:02 | 25.46683 | 52.62167 | 20443 ft | 453 kts | 98° |
| 2026-05-04 00:02 | 25.46164 | 52.65634 | 20689 ft | 460 kts | 98° |
| 2026-05-04 00:03 | 25.45804 | 52.69163 | 20871 ft | 461 kts | 91° |
| 2026-05-04 00:03 | 25.45775 | 52.72739 | 20879 ft | 464 kts | 85° |
| 2026-05-04 00:03 | 25.46104 | 52.76286 | 20834 ft | 461 kts | 79° |
| 2026-05-04 00:03 | 25.46695 | 52.79747 | 20813 ft | 457 kts | 77° |
| 2026-05-04 00:04 | 25.47307 | 52.83183 | 20810 ft | 453 kts | 76° |
| 2026-05-04 00:04 | 25.48050 | 52.86547 | 20836 ft | 449 kts | 73° |
| 2026-05-04 00:04 | 25.48840 | 52.89833 | 20822 ft | 448 kts | 72° |
| 2026-05-04 00:04 | 25.49658 | 52.93214 | 20839 ft | 446 kts | 72° |
| 2026-05-04 00:05 | 25.50463 | 52.96532 | 20859 ft | 446 kts | 72° |
| 2026-05-04 00:05 | 25.51260 | 52.99811 | 20852 ft | 447 kts | 72° |
| 2026-05-04 00:05 | 25.52071 | 53.03142 | 20878 ft | 448 kts | 72° |
| 2026-05-04 00:05 | 25.52881 | 53.06468 | 20863 ft | 449 kts | 72° |
| 2026-05-04 00:06 | 25.53700 | 53.09824 | 20888 ft | 449 kts | 72° |
| 2026-05-04 00:06 | 25.54513 | 53.13154 | 20875 ft | 450 kts | 72° |
| 2026-05-04 00:06 | 25.55330 | 53.16501 | 20885 ft | 449 kts | 72° |
| 2026-05-04 00:06 | 25.56146 | 53.19842 | 20897 ft | 449 kts | 72° |
| 2026-05-04 00:07 | 25.56964 | 53.23192 | 20887 ft | 449 kts | 72° |
| 2026-05-04 00:07 | 25.57772 | 53.26500 | 20888 ft | 449 kts | 72° |
| 2026-05-04 00:07 | 25.58585 | 53.29835 | 20912 ft | 448 kts | 72° |
| 2026-05-04 00:07 | 25.59401 | 53.33177 | 20889 ft | 449 kts | 72° |
| 2026-05-04 00:08 | 25.60217 | 53.36524 | 20898 ft | 449 kts | 72° |
| 2026-05-04 00:08 | 25.61024 | 53.39836 | 20916 ft | 448 kts | 72° |
| 2026-05-04 00:08 | 25.61832 | 53.43189 | 20922 ft | 449 kts | 72° |
| 2026-05-04 00:08 | 25.62635 | 53.46530 | 20927 ft | 449 kts | 72° |
| 2026-05-04 00:09 | 25.63443 | 53.49892 | 20921 ft | 450 kts | 72° |
| 2026-05-04 00:09 | 25.64246 | 53.53234 | 20929 ft | 450 kts | 72° |
| 2026-05-04 00:09 | 25.65043 | 53.56548 | 20945 ft | 449 kts | 72° |
| 2026-05-04 00:09 | 25.65848 | 53.59889 | 20942 ft | 450 kts | 72° |
| 2026-05-04 00:10 | 25.66653 | 53.63232 | 20974 ft | 449 kts | 72° |
| 2026-05-04 00:10 | 25.67462 | 53.66588 | 20947 ft | 450 kts | 72° |
| 2026-05-04 00:10 | 25.68269 | 53.69939 | 20966 ft | 450 kts | 72° |
| 2026-05-04 00:10 | 25.69075 | 53.73294 | 20969 ft | 450 kts | 72° |
| 2026-05-04 00:11 | 25.69874 | 53.76644 | 20975 ft | 450 kts | 72° |
| 2026-05-04 00:11 | 25.70682 | 53.80021 | 20988 ft | 450 kts | 73° |
| 2026-05-04 00:11 | 25.71472 | 53.83335 | 21004 ft | 451 kts | 73° |
| 2026-05-04 00:11 | 25.72274 | 53.86699 | 20997 ft | 452 kts | 73° |
| 2026-05-04 00:12 | 25.73081 | 53.90084 | 21001 ft | 452 kts | 73° |
| 2026-05-04 00:12 | 25.73883 | 53.93444 | 21014 ft | 452 kts | 73° |
| 2026-05-04 00:12 | 25.74686 | 53.96815 | 21022 ft | 452 kts | 73° |
| 2026-05-04 00:12 | 25.75492 | 54.00189 | 21020 ft | 451 kts | 72° |
| 2026-05-04 00:13 | 25.76460 | 54.03486 | 21016 ft | 450 kts | 68° |
| 2026-05-04 00:13 | 25.77486 | 54.06700 | 21009 ft | 450 kts | 68° |
| 2026-05-04 00:13 | 25.78533 | 54.09983 | 21457 ft | 443 kts | 68° |
| 2026-05-04 00:13 | 25.79582 | 54.13265 | 21189 ft | 455 kts | 68° |
| 2026-05-04 00:14 | 25.80506 | 54.16623 | 20954 ft | 455 kts | 76° |
| 2026-05-04 00:14 | 25.80843 | 54.20106 | 20708 ft | 450 kts | 89° |
| 2026-05-04 00:14 | 25.80507 | 54.23519 | 20381 ft | 444 kts | 103° |
| 2026-05-04 00:14 | 25.79591 | 54.26774 | 19874 ft | 441 kts | 108° |
| 2026-05-04 00:15 | 25.78669 | 54.29972 | 19324 ft | 439 kts | 108° |
| 2026-05-04 00:15 | 25.77740 | 54.33178 | 18829 ft | 436 kts | 108° |
| 2026-05-04 00:15 | 25.76802 | 54.36386 | 18297 ft | 433 kts | 109° |
| 2026-05-04 00:15 | 25.75874 | 54.39534 | 17820 ft | 429 kts | 109° |
| 2026-05-04 00:16 | 25.74938 | 54.42683 | 17296 ft | 427 kts | 109° |
| 2026-05-04 00:16 | 25.74003 | 54.45808 | 16793 ft | 424 kts | 109° |
| 2026-05-04 00:16 | 25.73075 | 54.48890 | 16310 ft | 421 kts | 109° |
| 2026-05-04 00:16 | 25.72147 | 54.51955 | 15781 ft | 419 kts | 109° |
| 2026-05-04 00:17 | 25.71213 | 54.55018 | 15300 ft | 415 kts | 109° |
| 2026-05-04 00:17 | 25.70289 | 54.58038 | 14761 ft | 414 kts | 109° |
| 2026-05-04 00:17 | 25.69366 | 54.60996 | 14295 ft | 411 kts | 110° |
| 2026-05-04 00:17 | 25.68416 | 54.63981 | 13798 ft | 408 kts | 110° |
| 2026-05-04 00:18 | 25.67461 | 54.66976 | 13290 ft | 406 kts | 110° |
| 2026-05-04 00:18 | 25.66533 | 54.69880 | 12801 ft | 404 kts | 110° |
| 2026-05-04 00:18 | 25.65604 | 54.72784 | 12531 ft | 395 kts | 110° |
| 2026-05-04 00:18 | 25.64697 | 54.75617 | 12448 ft | 381 kts | 110° |
| 2026-05-04 00:19 | 25.63828 | 54.78331 | 12369 ft | 368 kts | 110° |
| 2026-05-04 00:19 | 25.62983 | 54.80962 | 12278 ft | 355 kts | 110° |
| 2026-05-04 00:19 | 25.62173 | 54.83483 | 12186 ft | 343 kts | 110° |
| 2026-05-04 00:19 | 25.61479 | 54.85976 | 12099 ft | 330 kts | 103° |
| 2026-05-04 00:20 | 25.61089 | 54.88403 | 11994 ft | 319 kts | 97° |
| 2026-05-04 00:20 | 25.60794 | 54.90840 | 11859 ft | 310 kts | 97° |
| 2026-05-04 00:20 | 25.60523 | 54.93154 | 11778 ft | 303 kts | 97° |
| 2026-05-04 00:20 | 25.60258 | 54.95464 | 11693 ft | 301 kts | 96° |
| 2026-05-04 00:21 | 25.59999 | 54.97756 | 11578 ft | 301 kts | 96° |
| 2026-05-04 00:21 | 25.59735 | 55.00076 | 11325 ft | 303 kts | 95° |
| 2026-05-04 00:21 | 25.59479 | 55.02376 | 11086 ft | 302 kts | 95° |
| 2026-05-04 00:21 | 25.59195 | 55.04672 | 10800 ft | 301 kts | 101° |
| 2026-05-04 00:22 | 25.58504 | 55.06869 | 10486 ft | 300 kts | 116° |
| 2026-05-04 00:22 | 25.57459 | 55.08858 | 10151 ft | 298 kts | 120° |
| 2026-05-04 00:22 | 25.56407 | 55.10846 | 9799 ft | 297 kts | 121° |
| 2026-05-04 00:22 | 25.55362 | 55.12777 | 9453 ft | 297 kts | 121° |
| 2026-05-04 00:23 | 25.54303 | 55.14724 | 9117 ft | 295 kts | 121° |
| 2026-05-04 00:23 | 25.53238 | 55.16674 | 8781 ft | 294 kts | 121° |
| 2026-05-04 00:23 | 25.52176 | 55.18606 | 8445 ft | 293 kts | 122° |
| 2026-05-04 00:23 | 25.51114 | 55.20523 | 8109 ft | 292 kts | 121° |
| 2026-05-04 00:24 | 25.50059 | 55.22439 | 7775 ft | 291 kts | 121° |
| 2026-05-04 00:24 | 25.49002 | 55.24353 | 7439 ft | 290 kts | 121° |
| 2026-05-04 00:24 | 25.48304 | 55.25605 | 7226 ft | 288 kts | 121° |
| 2026-05-04 00:24 | 25.46932 | 55.28092 | 7021 ft | 277 kts | 121° |
| 2026-05-04 00:25 | 25.45942 | 55.29885 | 6906 ft | 269 kts | 121° |
| 2026-05-04 00:25 | 25.44964 | 55.31642 | 6814 ft | 267 kts | 121° |
| 2026-05-04 00:25 | 25.43996 | 55.33388 | 6730 ft | 266 kts | 121° |
| 2026-05-04 00:25 | 25.43024 | 55.35113 | 6608 ft | 265 kts | 126° |
| 2026-05-04 00:26 | 25.41664 | 55.36427 | 6424 ft | 262 kts | 155° |
| 2026-05-04 00:26 | 25.39940 | 55.36911 | 6251 ft | 254 kts | 185° |
| 2026-05-04 00:26 | 25.38288 | 55.36462 | 6153 ft | 239 kts | 215° |
| 2026-05-04 00:26 | 25.37092 | 55.35263 | 6078 ft | 228 kts | 242° |
| 2026-05-04 00:27 | 25.36461 | 55.33691 | 6012 ft | 223 kts | 259° |
| 2026-05-04 00:27 | 25.36336 | 55.32570 | 5957 ft | 219 kts | 276° |
| 2026-05-04 00:27 | 25.37013 | 55.30507 | 5848 ft | 215 kts | 300° |
| 2026-05-04 00:27 | 25.37739 | 55.29060 | 5772 ft | 215 kts | 300° |
| 2026-05-04 00:28 | 25.38482 | 55.27631 | 5696 ft | 215 kts | 301° |
| 2026-05-04 00:28 | 25.39237 | 55.26202 | 5619 ft | 214 kts | 301° |
| 2026-05-04 00:28 | 25.39744 | 55.25263 | 5570 ft | 214 kts | 302° |
| 2026-05-04 00:28 | 25.40764 | 55.23392 | 5472 ft | 214 kts | 302° |
| 2026-05-04 00:29 | 25.41284 | 55.22444 | 5421 ft | 214 kts | 302° |
| 2026-05-04 00:29 | 25.42316 | 55.20552 | 5319 ft | 214 kts | 302° |
| 2026-05-04 00:29 | 25.42831 | 55.19623 | 5270 ft | 214 kts | 302° |
| 2026-05-04 00:29 | 25.43611 | 55.18215 | 5195 ft | 214 kts | 302° |
| 2026-05-04 00:30 | 25.44388 | 55.16811 | 5120 ft | 214 kts | 302° |
| 2026-05-04 00:30 | 25.45166 | 55.15407 | 5045 ft | 214 kts | 302° |
| 2026-05-04 00:30 | 25.46192 | 55.13539 | 4945 ft | 214 kts | 302° |
| 2026-05-04 00:30 | 25.46973 | 55.12133 | 4870 ft | 214 kts | 302° |
| 2026-05-04 00:31 | 25.47752 | 55.10727 | 4794 ft | 214 kts | 302° |
| 2026-05-04 00:31 | 25.48263 | 55.09804 | 4741 ft | 209 kts | 302° |
| 2026-05-04 00:31 | 25.49243 | 55.08015 | 4630 ft | 199 kts | 302° |
| 2026-05-04 00:31 | 25.49965 | 55.06716 | 4549 ft | 195 kts | 302° |
| 2026-05-04 00:32 | 25.50669 | 55.05448 | 4472 ft | 193 kts | 302° |
| 2026-05-04 00:32 | 25.51136 | 55.04605 | 4421 ft | 193 kts | 302° |
| 2026-05-04 00:32 | 25.51739 | 55.02797 | 4302 ft | 194 kts | 269° |
| 2026-05-04 00:32 | 25.51517 | 55.01813 | 4252 ft | 198 kts | 245° |
| 2026-05-04 00:33 | 25.50563 | 55.00712 | 4183 ft | 204 kts | 216° |
| 2026-05-04 00:33 | 25.48122 | 54.99091 | 4027 ft | 208 kts | 198° |
| 2026-05-04 00:33 | 25.46245 | 54.99311 | 3922 ft | 212 kts | 151° |
| 2026-05-04 00:34 | 25.45486 | 54.99995 | 3873 ft | 213 kts | 128° |
| 2026-05-04 00:34 | 25.44775 | 55.01425 | 3818 ft | 213 kts | 116° |
| 2026-05-04 00:34 | 25.44075 | 55.02879 | 3743 ft | 214 kts | 118° |
| 2026-05-04 00:34 | 25.43301 | 55.04288 | 3661 ft | 213 kts | 127° |
| 2026-05-04 00:35 | 25.42407 | 55.05602 | 3586 ft | 216 kts | 123° |
| 2026-05-04 00:35 | 25.41587 | 55.07015 | 3515 ft | 219 kts | 121° |
| 2026-05-04 00:35 | 25.40785 | 55.08448 | 3441 ft | 218 kts | 121° |
| 2026-05-04 00:35 | 25.39996 | 55.09864 | 3365 ft | 217 kts | 121° |
| 2026-05-04 00:36 | 25.39206 | 55.11292 | 3289 ft | 216 kts | 121° |
| 2026-05-04 00:36 | 25.38434 | 55.12693 | 3215 ft | 216 kts | 121° |
| 2026-05-04 00:36 | 25.37644 | 55.14121 | 3139 ft | 216 kts | 121° |
| 2026-05-04 00:36 | 25.36868 | 55.15523 | 3066 ft | 216 kts | 121° |
| 2026-05-04 00:37 | 25.36089 | 55.16931 | 3012 ft | 212 kts | 121° |
| 2026-05-04 00:37 | 25.35324 | 55.18315 | 2995 ft | 209 kts | 121° |
| 2026-05-04 00:37 | 25.34572 | 55.19672 | 3033 ft | 201 kts | 121° |
| 2026-05-04 00:37 | 25.33861 | 55.20956 | 2998 ft | 192 kts | 121° |
| 2026-05-04 00:38 | 25.33175 | 55.22195 | 2957 ft | 187 kts | 121° |
| 2026-05-04 00:38 | 25.32491 | 55.23431 | 2736 ft | 189 kts | 121° |
| 2026-05-04 00:38 | 25.31812 | 55.24659 | 2499 ft | 185 kts | 121° |
| 2026-05-04 00:38 | 25.31157 | 55.25842 | 2275 ft | 179 kts | 121° |
| 2026-05-04 00:39 | 25.30510 | 55.26998 | 2046 ft | 173 kts | 121° |
| 2026-05-04 00:39 | 25.29903 | 55.28104 | 1821 ft | 166 kts | 122° |
| 2026-05-04 00:39 | 25.29316 | 55.29165 | 1586 ft | 159 kts | 122° |
| 2026-05-04 00:39 | 25.28739 | 55.30187 | 1367 ft | 154 kts | 121° |
| 2026-05-04 00:40 | 25.28187 | 55.31196 | 1163 ft | 152 kts | 122° |
| 2026-05-04 00:40 | 25.27645 | 55.32182 | 989 ft | 148 kts | 122° |
| 2026-05-04 00:40 | 25.27108 | 55.33149 | 765 ft | 146 kts | 123° |
| 2026-05-04 00:40 | 25.26584 | 55.34096 | 543 ft | 146 kts | 123° |
| 2026-05-04 00:41 | 25.26050 | 55.35057 | 317 ft | 145 kts | 120° |
| 2026-05-04 00:41 | 25.25528 | 55.36017 | 97 ft | 145 kts | 122° |
| 2026-05-04 00:41 | 25.25027 | 55.36873 | 52 ft | 115 kts | 121° |
| 2026-05-04 00:41 | 25.24719 | 55.37446 | 51 ft | 59 kts | 121° |
| 2026-05-04 00:42 | 25.24569 | 55.37722 | 51 ft | 29 kts | 122° |
| 2026-05-04 00:42 | 25.24444 | 55.37781 | 51 ft | 19 kts | 208° |
| 2026-05-04 00:42 | 25.24334 | 55.37698 | 51 ft | 19 kts | 230° |
| 2026-05-04 00:42 | 25.24354 | 55.37567 | 51 ft | 18 kts | 300° |
| 2026-05-04 00:43 | 25.24420 | 55.37447 | 51 ft | 18 kts | 301° |
| 2026-05-04 00:43 | 25.24486 | 55.37326 | 51 ft | 18 kts | 301° |
| 2026-05-04 00:43 | 25.24553 | 55.37208 | 51 ft | 18 kts | 301° |
| 2026-05-04 00:43 | 25.24619 | 55.37089 | 51 ft | 18 kts | 301° |
| 2026-05-04 00:44 | 25.24685 | 55.36969 | 51 ft | 18 kts | 301° |
| 2026-05-04 00:44 | 25.24751 | 55.36847 | 51 ft | 18 kts | 296° |
| 2026-05-04 00:44 | 25.24787 | 55.36712 | 51 ft | 19 kts | 284° |
| 2026-05-04 00:44 | 25.24835 | 55.36579 | 51 ft | 19 kts | 300° |
| 2026-05-04 00:45 | 25.24902 | 55.36460 | 51 ft | 17 kts | 302° |
| 2026-05-04 00:45 | 25.24963 | 55.36349 | 51 ft | 17 kts | 303° |
| 2026-05-04 00:45 | 25.25028 | 55.36237 | 51 ft | 18 kts | 302° |
| 2026-05-04 00:45 | 25.25093 | 55.36121 | 51 ft | 18 kts | 302° |
| 2026-05-04 00:46 | 25.25159 | 55.36003 | 51 ft | 18 kts | 302° |
| 2026-05-04 00:46 | 25.25226 | 55.35884 | 51 ft | 18 kts | 299° |
| 2026-05-04 00:46 | 25.25290 | 55.35762 | 51 ft | 18 kts | 301° |
| 2026-05-04 00:46 | 25.25267 | 55.35660 | 51 ft | 12 kts | 204° |
| 2026-05-04 00:47 | 25.25232 | 55.35643 | 51 ft | 0 kts | 208° |